KCOD/COD METAR and TAF weather

Enter ICAO airport designator
Station Type Date Time Source
KCOD METAR 2018/01/21 11:56 UTC NOAA

KCOD 211156Z AUTO 18004KT 10SM CLR M06/M10 A2998 RMK AO2 SLP200 T10611100 11044 21067 53002 FZRANO


Station Type Date Time Source
KCOD Decoded METAR 2018/01/21 11:56 UTC NOAA

Cody, WY, United States (KCOD) 44-31N 109-01W 1553M
Jan 21, 2018 - 06:56 AM EST / 2018.01.21 1156 UTC
Wind: from the S (180 degrees) at 5 MPH (4 KT):0
Visibility: 10 mile(s):0
Sky conditions: clear
Temperature: 21.0 F (-6.1 C)
Windchill: 14 F (-10 C):1
Dew Point: 14.0 F (-10.0 C)
Relative Humidity: 73%
Pressure (altimeter): 29.98 in. Hg (1015 hPa)
Pressure tendency: 0.01 inches (0.2 hPa) higher than three hours ago
ob: KCOD 211156Z AUTO 18004KT 10SM CLR M06/M10 A2998 RMK AO2 SLP200 T10611100 11044 21067 53002 FZRANO
cycle: 12

Station Type Date Time Source
KCOD TAF 2018/01/21 12:27 UTC NOAA

TAF KCOD 211124Z 2112/2212 VRB05KT P6SM SCT100
FM211900 03006KT P6SM SCT100
FM220500 24011G20KT P6SM SCT110
AMD LTD TO CLD VIS AND WIND


Example: see airport list